Time;durP1;ratioP1;P1;durP2;ratioP2;P2;SDS_P1;SDS_P2;PMS_P1;PMS_P2;Temp;Humidity;BMP_temperature;BMP_pressure;BME280_temperature;BME280_humidity;BME280_pressure;Samples;Min_cycle;Max_cycle;Signal;HPM_P1;HPM_P2
2023/10/16 06:15:48;;;;;;;;;1.75;1.75;;;;;16.94;38.53;101670.00;5096118;27;45336;-60
2023/10/16 06:18:13;;;;;;;;;2.25;2.00;;;;;16.99;38.46;101666.06;5095830;27;61044;-60
2023/10/16 06:20:43;;;;;;;;;1.00;1.00;;;;;17.13;37.79;101665.25;5095120;27;57221;-60
2023/10/16 06:23:10;;;;;;;;;2.00;2.00;;;;;17.20;37.56;101661.22;5095527;27;45605;-60
2023/10/16 06:25:36;;;;;;;;;5.75;2.00;;;;;17.25;37.61;101664.53;5095238;27;46463;-58
2023/10/16 06:28:08;;;;;;;;;3.00;2.00;;;;;17.25;37.52;101653.72;5094647;27;45367;-59
2023/10/16 06:30:37;;;;;;;;;1.50;1.50;;;;;17.23;37.89;101660.16;5094626;27;45370;-62
2023/10/16 06:33:04;;;;;;;;;4.25;3.00;;;;;17.27;37.29;101668.00;5095100;27;46113;-59
2023/10/16 06:35:29;;;;;;;;;3.75;2.00;;;;;17.37;37.53;101652.09;5095270;27;46189;-59
2023/10/16 06:37:56;;;;;;;;;2.00;2.00;;;;;17.35;37.66;101657.59;5095513;27;45417;-59
2023/10/16 06:40:26;;;;;;;;;2.00;2.00;;;;;17.35;37.93;101662.16;5094507;27;45217;-59
2023/10/16 06:43:26;;;;;;;;;2.75;2.75;;;;;17.36;37.73;101661.19;5095087;27;45237;-60
2023/10/16 06:45:55;;;;;;;;;2.50;2.25;;;;;17.41;38.10;101664.50;5091865;27;46135;-59
2023/10/16 06:48:21;;;;;;;;;2.25;2.25;;;;;17.41;37.71;101659.09;5095149;27;45319;-60
2023/10/16 06:50:54;;;;;;;;;2.00;2.00;;;;;17.48;37.49;101648.75;5076612;27;45338;-60
2023/10/16 06:53:23;;;;;;;;;2.00;2.00;;;;;17.48;37.82;101660.47;5089894;27;45887;-60
2023/10/16 06:55:51;;;;;;;;;7.00;3.00;;;;;17.56;37.51;101663.56;5080748;28;46110;-60
2023/10/16 06:58:21;;;;;;;;;6.00;4.75;;;;;17.58;37.46;101666.19;5081421;28;45493;-59
2023/10/16 07:00:52;;;;;;;;;2.75;2.75;;;;;17.64;37.41;101657.72;5081675;28;45366;-60
2023/10/16 07:03:17;;;;;;;;;4.00;3.00;;;;;17.66;37.02;101637.69;5081353;28;45548;-60
2023/10/16 07:05:42;;;;;;;;;4.25;4.00;;;;;17.72;37.00;101653.56;5081095;28;45287;-59
2023/10/16 07:08:10;;;;;;;;;3.00;3.00;;;;;17.71;37.14;101649.13;5081558;28;45357;-59
2023/10/16 07:10:40;;;;;;;;;4.75;4.00;;;;;17.78;37.06;101644.19;5080784;28;45450;-59
2023/10/16 07:13:06;;;;;;;;;5.00;3.25;;;;;17.82;37.03;101645.75;5080483;28;45260;-60
2023/10/16 07:15:31;;;;;;;;;1.00;1.00;;;;;17.76;36.90;101628.03;5081347;28;45288;-60
2023/10/16 07:18:15;;;;;;;;;4.00;4.00;;;;;17.84;36.75;101637.53;5081442;28;45372;-60
2023/10/16 07:20:59;;;;;;;;;7.00;5.00;;;;;17.80;37.18;101634.09;5069518;28;45307;-60
2023/10/16 07:23:25;;;;;;;;;4.50;4.50;;;;;17.85;36.84;101634.72;5080518;28;45345;-59
2023/10/16 07:25:54;;;;;;;;;7.75;4.00;;;;;17.87;36.73;101645.44;5062091;28;47225;-60
2023/10/16 07:28:21;;;;;;;;;2.50;2.50;;;;;17.87;36.74;101646.31;5080627;28;45467;-60
2023/10/16 07:30:46;;;;;;;;;3.25;3.25;;;;;17.81;36.29;101634.97;5081196;28;45383;-60
2023/10/16 07:33:15;;;;;;;;;6.00;2.25;;;;;17.90;35.71;101646.16;5080796;28;45357;-60
2023/10/16 07:35:45;;;;;;;;;1.50;1.50;;;;;17.84;35.99;101642.94;5081159;28;46033;-60
2023/10/16 07:38:19;;;;;;;;;3.00;2.00;;;;;17.82;35.96;101647.59;5080766;28;45356;-60
2023/10/16 07:40:45;;;;;;;;;2.00;2.00;;;;;17.83;36.11;101652.03;5080947;28;45497;-60
2023/10/16 07:43:10;;;;;;;;;3.50;3.00;;;;;17.88;36.02;101649.91;5080477;28;45280;-58
2023/10/16 07:45:37;;;;;;;;;3.00;3.00;;;;;17.91;36.05;101655.16;5080434;28;60961;-60
2023/10/16 07:48:27;;;;;;;;;2.00;2.00;;;;;17.90;35.73;101648.84;5089006;27;45378;-60
2023/10/16 07:50:50;;;;;;;;;2.25;2.00;;;;;17.82;35.79;101655.72;5079601;28;45273;-61
2023/10/16 07:53:17;;;;;;;;;5.25;2.00;;;;;17.87;36.09;101659.00;5079642;28;45314;-60
2023/10/16 07:55:50;;;;;;;;;2.00;2.00;;;;;17.93;36.12;101662.25;5079897;28;45811;-61
2023/10/16 07:58:23;;;;;;;;;4.75;3.00;;;;;17.94;35.62;101657.69;5079962;28;45347;-60
2023/10/16 08:03:36;;;;;;;;;3.00;3.00;;;;;18.10;35.61;101653.06;5079965;28;45370;-61
2023/10/16 08:06:05;;;;;;;;;7.25;4.25;;;;;18.12;35.86;101651.97;5078915;28;47097;-61
2023/10/16 08:08:36;;;;;;;;;4.00;4.00;;;;;18.09;35.84;101652.19;5079879;28;45411;-60
2023/10/16 08:11:12;;;;;;;;;4.00;4.00;;;;;18.12;35.62;101656.50;5077458;28;45292;-60
2023/10/16 08:13:49;;;;;;;;;4.75;3.00;;;;;18.15;36.12;101646.34;5077774;28;45432;-61
2023/10/16 08:16:27;;;;;;;;;8.75;3.00;;;;;18.23;35.82;101643.16;5080304;28;46439;-59
2023/10/16 08:18:53;;;;;;;;;4.00;2.75;;;;;18.33;35.74;101646.16;5080164;28;45379;-60
2023/10/16 08:21:25;;;;;;;;;3.00;3.00;;;;;18.39;35.45;101643.03;5080249;28;45345;-60
2023/10/16 08:23:51;;;;;;;;;3.50;3.00;;;;;18.48;35.73;101639.72;5080111;28;45441;-59
2023/10/16 08:26:29;;;;;;;;;5.00;5.00;;;;;18.54;35.75;101642.91;5079568;28;46937;-60
2023/10/16 08:31:44;;;;;;;;;3.50;3.50;;;;;18.63;35.25;101630.63;5080340;28;45231;-61
2023/10/16 08:34:21;;;;;;;;;2.00;2.00;;;;;18.67;35.32;101636.72;5079898;28;46191;-61
2023/10/16 08:36:50;;;;;;;;;3.75;3.75;;;;;18.70;35.63;101625.69;5079000;28;45371;-61
2023/10/16 08:39:21;;;;;;;;;4.00;4.00;;;;;18.67;35.39;101626.75;5077934;28;45350;-60
2023/10/16 08:41:53;;;;;;;;;5.00;5.00;;;;;18.68;35.26;101623.06;5079866;28;45368;-60
2023/10/16 08:44:21;;;;;;;;;7.50;5.75;;;;;18.72;35.37;101621.88;5078341;28;45512;-60
2023/10/16 08:49:24;;;;;;;;;4.25;4.25;;;;;18.70;35.12;101595.81;5079482;28;45548;-60
2023/10/16 08:51:53;;;;;;;;;4.25;4.25;;;;;18.99;34.89;101593.81;5061114;27;45197;-61
2023/10/16 08:57:09;;;;;;;;;4.00;4.00;;;;;19.00;34.99;101595.56;5079486;28;45787;-60
2023/10/16 08:59:36;;;;;;;;;3.00;3.00;;;;;19.00;34.44;101601.88;5078455;28;45363;-59
2023/10/16 09:02:07;;;;;;;;;3.00;3.00;;;;;19.03;34.79;101590.81;5079503;28;45359;-60
2023/10/16 09:04:33;;;;;;;;;4.75;4.75;;;;;19.03;34.68;101593.53;5079655;28;45447;-62
2023/10/16 09:06:59;;;;;;;;;3.25;3.25;;;;;19.10;34.90;101596.69;5077670;28;46203;-60
2023/10/16 09:09:28;;;;;;;;;4.00;3.00;;;;;19.07;34.21;101595.06;5079106;28;45239;-61
2023/10/16 09:12:10;;;;;;;;;3.50;2.00;;;;;19.07;34.25;101589.63;5079123;28;45410;-60
2023/10/16 09:14:37;;;;;;;;;3.00;3.00;;;;;18.96;33.94;101575.03;5078752;28;45339;-60
2023/10/16 09:17:06;;;;;;;;;3.75;3.75;;;;;19.00;34.12;101582.88;5078573;28;46315;-61
2023/10/16 09:19:34;;;;;;;;;3.25;3.25;;;;;19.02;34.17;101583.63;5078788;28;45451;-59
2023/10/16 09:22:04;;;;;;;;;5.50;4.00;;;;;19.11;34.08;101587.56;5078991;28;45301;-59
2023/10/16 09:24:33;;;;;;;;;2.00;2.00;;;;;19.10;34.49;101592.13;5078966;28;45501;-59
2023/10/16 09:27:13;;;;;;;;;3.50;3.25;;;;;19.12;34.36;101587.47;5079026;28;46962;-59
2023/10/16 09:29:44;;;;;;;;;2.50;2.50;;;;;19.16;34.19;101579.97;5077599;28;45293;-59
2023/10/16 09:32:10;;;;;;;;;3.25;3.25;;;;;19.28;34.31;101580.00;5079141;28;45321;-60
2023/10/16 09:34:37;;;;;;;;;3.00;3.00;;;;;19.25;34.06;101576.63;5078269;28;45557;-61
2023/10/16 09:37:16;;;;;;;;;5.25;4.50;;;;;19.25;34.21;101572.06;5078789;28;54993;-60
2023/10/16 09:39:48;;;;;;;;;5.25;4.25;;;;;19.32;34.31;101572.50;5078877;28;45331;-60
2023/10/16 09:42:14;;;;;;;;;3.75;3.50;;;;;19.28;34.24;101555.53;5078953;28;45397;-59
2023/10/16 09:44:44;;;;;;;;;4.00;3.00;;;;;19.39;33.82;101559.38;5078582;28;45990;-59
2023/10/16 09:47:27;;;;;;;;;0.00;0.00;;;;;19.44;33.98;101560.78;5078694;28;45346;-61
2023/10/16 09:49:58;;;;;;;;;3.75;3.25;;;;;19.39;33.68;101560.25;5078982;28;45401;-62
2023/10/16 09:52:24;;;;;;;;;5.50;4.00;;;;;19.39;33.76;101556.66;5078432;27;45387;-62
2023/10/16 09:54:53;;;;;;;;;3.25;3.25;;;;;19.42;33.68;101545.53;5078896;28;45393;-61
2023/10/16 09:57:22;;;;;;;;;5.25;2.00;;;;;19.47;33.94;101547.00;5078474;28;45366;-60
2023/10/16 09:59:54;;;;;;;;;4.75;4.00;;;;;19.71;33.49;101552.56;5078843;28;45359;-60
2023/10/16 10:02:25;;;;;;;;;3.75;3.75;;;;;19.84;33.26;101550.69;5078535;28;45467;-60
2023/10/16 10:04:59;;;;;;;;;5.00;3.00;;;;;19.85;33.21;101543.41;5077474;28;45546;-60
2023/10/16 10:07:38;;;;;;;;;4.00;3.00;;;;;19.89;33.13;101540.34;5078943;28;46086;-60
2023/10/16 10:13:15;;;;;;;;;3.75;3.75;;;;;20.10;32.73;101527.03;5022759;28;45370;-60
2023/10/16 10:15:45;;;;;;;;;3.00;3.00;;;;;20.21;32.83;101526.25;5078523;28;45492;-61
2023/10/16 10:21:01;;;;;;;;;4.00;2.00;;;;;20.37;32.46;101514.13;5078807;28;45362;-61
2023/10/16 10:23:26;;;;;;;;;4.00;3.00;;;;;20.38;32.08;101524.03;5077822;28;45481;-61
2023/10/16 10:25:55;;;;;;;;;2.50;2.50;;;;;20.33;32.16;101506.28;5077439;28;45480;-59
2023/10/16 10:28:25;;;;;;;;;0.00;0.00;;;;;20.20;32.02;101486.38;5078522;28;46148;-61
2023/10/16 10:30:54;;;;;;;;;2.00;2.00;;;;;20.38;32.39;101517.72;5081079;28;45425;-61
2023/10/16 10:33:37;;;;;;;;;2.75;2.75;;;;;20.36;32.23;101503.34;5068846;28;45226;-62
2023/10/16 10:36:32;;;;;;;;;2.75;2.00;;;;;20.35;32.26;101479.81;5081921;28;45426;-60
2023/10/16 10:39:25;;;;;;;;;3.50;2.25;;;;;20.63;32.46;101497.66;5081860;28;46656;-60
2023/10/16 10:42:03;;;;;;;;;3.00;1.00;;;;;20.85;32.17;101489.59;5080867;28;45378;-62
2023/10/16 10:44:32;;;;;;;;;3.75;3.00;;;;;20.96;31.70;101486.91;5081526;28;45453;-61
2023/10/16 10:47:00;;;;;;;;;3.00;2.25;;;;;21.01;31.41;101481.94;5060085;28;46304;-60
2023/10/16 10:49:33;;;;;;;;;2.00;2.00;;;;;21.09;30.91;101481.38;5062926;28;46174;-61
2023/10/16 10:52:06;;;;;;;;;2.50;2.50;;;;;21.10;30.75;101470.31;5081369;28;45347;-59
2023/10/16 10:54:33;;;;;;;;;2.25;2.00;;;;;21.20;31.35;101483.28;5069094;28;45376;-59
2023/10/16 10:56:59;;;;;;;;;4.00;4.00;;;;;21.42;30.40;101478.75;5081235;28;45583;-59
2023/10/16 10:59:39;;;;;;;;;2.50;2.50;;;;;21.77;30.58;101491.41;5080722;28;45635;-59
2023/10/16 11:04:53;;;;;;;;;2.75;2.75;;;;;22.60;29.41;101489.06;5081542;28;45331;-60
2023/10/16 11:07:26;;;;;;;;;2.75;2.75;;;;;22.78;28.84;101465.66;5080977;28;45415;-60
2023/10/16 11:09:52;;;;;;;;;4.00;4.00;;;;;23.21;28.19;101468.28;5081162;28;46248;-60
2023/10/16 11:12:24;;;;;;;;;3.50;3.50;;;;;23.67;27.89;101462.38;5081088;28;45355;-60
2023/10/16 11:14:50;;;;;;;;;3.50;3.00;;;;;24.07;27.55;101451.41;5079872;28;45449;-59
2023/10/16 11:17:30;;;;;;;;;2.25;2.25;;;;;24.43;26.43;101444.44;5081231;28;45359;-59
2023/10/16 11:19:56;;;;;;;;;3.25;2.00;;;;;24.86;26.35;101429.44;5080746;28;46393;-58
2023/10/16 11:22:27;;;;;;;;;4.25;3.00;;;;;25.15;25.95;101426.69;5080862;28;45365;-58
2023/10/16 11:24:53;;;;;;;;;1.25;1.25;;;;;25.34;25.07;101412.03;5081239;28;45269;-59
2023/10/16 11:27:19;;;;;;;;;2.00;2.00;;;;;25.49;24.85;101422.38;5080449;28;45300;-60
2023/10/16 11:29:46;;;;;;;;;4.00;4.00;;;;;25.51;24.62;101423.09;5080481;28;46350;-59
2023/10/16 11:32:15;;;;;;;;;2.50;2.50;;;;;25.63;24.67;101412.81;5080974;28;45443;-59
2023/10/16 11:34:45;;;;;;;;;5.00;4.00;;;;;25.57;25.02;101397.78;5080961;28;45384;-59
2023/10/16 11:37:13;;;;;;;;;6.00;6.00;;;;;25.73;24.78;101388.91;5067576;28;45254;-59
2023/10/16 11:39:39;;;;;;;;;4.00;4.00;;;;;26.05;24.63;101388.44;5077930;28;45472;-60
2023/10/16 11:42:05;;;;;;;;;3.25;3.25;;;;;26.36;23.96;101381.59;5080723;28;45259;-60
2023/10/16 11:44:33;;;;;;;;;1.75;1.75;;;;;26.44;23.72;101372.56;5080666;28;45423;-60
2023/10/16 11:47:01;;;;;;;;;3.00;3.00;;;;;26.56;23.50;101371.28;5079815;28;45587;-60
2023/10/16 11:49:32;;;;;;;;;3.00;3.00;;;;;26.65;23.67;101372.19;5080542;28;47232;-59
2023/10/16 11:52:08;;;;;;;;;3.00;3.00;;;;;26.75;23.69;101371.09;5078988;28;45265;-60
2023/10/16 11:54:34;;;;;;;;;2.50;2.50;;;;;26.80;23.51;101361.47;5080094;28;45436;-60
2023/10/16 11:57:00;;;;;;;;;2.50;2.50;;;;;26.90;23.24;101359.50;5079086;28;45423;-59
2023/10/16 11:59:26;;;;;;;;;5.50;3.75;;;;;26.92;22.75;101355.59;5061743;28;46943;-59
2023/10/16 12:01:53;;;;;;;;;1.75;1.75;;;;;26.91;23.26;101348.38;5080508;28;45537;-59
2023/10/16 12:04:22;;;;;;;;;3.00;3.00;;;;;26.97;23.08;101346.84;5079737;28;45476;-59
2023/10/16 12:06:48;;;;;;;;;4.50;4.50;;;;;27.04;22.83;101345.19;5079638;28;45371;-60
2023/10/16 12:09:19;;;;;;;;;3.00;3.00;;;;;27.07;22.81;101320.09;5080309;28;46230;-58
2023/10/16 12:11:45;;;;;;;;;1.75;1.75;;;;;27.41;22.98;101328.34;5080241;28;45310;-58
2023/10/16 12:14:16;;;;;;;;;3.00;1.75;;;;;27.48;22.22;101318.38;5079341;28;45371;-59
2023/10/16 12:16:45;;;;;;;;;2.25;2.25;;;;;27.68;22.34;101308.00;5080174;28;45406;-59
2023/10/16 12:19:19;;;;;;;;;2.50;2.50;;;;;27.79;22.15;101305.81;5078933;28;45700;-59
2023/10/16 12:21:52;;;;;;;;;1.50;1.50;;;;;27.75;22.00;101317.31;5079002;28;45296;-59
2023/10/16 12:24:18;;;;;;;;;1.00;1.00;;;;;27.83;21.06;101311.81;5072456;28;45382;-59
2023/10/16 12:26:45;;;;;;;;;3.00;2.00;;;;;28.03;21.57;101315.16;5079808;28;45408;-59
2023/10/16 12:29:11;;;;;;;;;3.50;1.50;;;;;28.19;21.65;101306.94;5079648;28;45339;-58
2023/10/16 12:31:37;;;;;;;;;3.75;1.00;;;;;28.45;20.95;101315.03;5079148;28;45399;-59
2023/10/16 12:34:03;;;;;;;;;1.75;1.25;;;;;28.83;20.53;101316.25;5080291;28;45318;-59
2023/10/16 12:36:30;;;;;;;;;1.00;1.00;;;;;29.07;21.08;101296.00;5079997;28;45516;-60
2023/10/16 12:38:55;;;;;;;;;2.75;2.75;;;;;29.35;20.48;101294.50;5079827;28;46077;-59
2023/10/16 12:41:21;;;;;;;;;1.75;1.75;;;;;29.50;19.68;101284.47;5079952;28;45419;-59
2023/10/16 12:43:49;;;;;;;;;0.50;0.50;;;;;29.53;18.78;101286.84;5079421;28;45764;-59
2023/10/16 12:46:14;;;;;;;;;0.00;0.00;;;;;29.49;18.81;101280.00;5079717;28;45331;-59
2023/10/16 12:48:40;;;;;;;;;1.00;1.00;;;;;29.50;19.09;101284.47;5079615;28;45215;-60
2023/10/16 12:51:07;;;;;;;;;0.00;0.00;;;;;29.41;19.42;101274.50;5078529;28;50589;-60
2023/10/16 12:53:33;;;;;;;;;1.50;0.50;;;;;29.12;19.44;101283.38;5078995;28;45631;-60
2023/10/16 12:55:58;;;;;;;;;0.50;0.50;;;;;28.62;19.08;101267.09;5078899;28;45510;-59
2023/10/16 12:58:28;;;;;;;;;0.00;0.00;;;;;28.32;19.42;101263.16;5079102;28;47224;-60
2023/10/16 13:00:58;;;;;;;;;3.00;2.00;;;;;28.00;19.57;101266.72;5079429;28;45370;-59
2023/10/16 13:03:24;;;;;;;;;0.75;0.75;;;;;27.89;20.08;101257.94;5079380;28;45289;-59
2023/10/16 13:05:50;;;;;;;;;3.00;1.00;;;;;27.91;20.29;101242.06;5079216;28;45391;-59
2023/10/16 13:08:22;;;;;;;;;0.00;0.00;;;;;28.11;20.42;101260.88;5078940;28;46780;-59
2023/10/16 13:10:52;;;;;;;;;3.00;1.25;;;;;28.18;20.54;101258.31;5079406;28;45287;-59
2023/10/16 13:13:20;;;;;;;;;2.00;2.00;;;;;28.30;20.34;101254.19;5078821;28;45365;-59
2023/10/16 13:15:51;;;;;;;;;0.50;0.50;;;;;28.49;20.09;101252.97;5078302;28;45341;-59
2023/10/16 13:18:17;;;;;;;;;1.25;1.25;;;;;28.61;20.41;101252.44;5078969;28;45355;-57
2023/10/16 13:20:43;;;;;;;;;3.00;1.50;;;;;28.70;20.41;101250.53;5079285;28;45379;-60
2023/10/16 13:23:08;;;;;;;;;1.00;1.00;;;;;28.80;20.04;101239.31;5079072;28;45533;-59
2023/10/16 13:25:36;;;;;;;;;1.25;1.25;;;;;28.98;20.38;101228.91;5078686;28;60698;-60
2023/10/16 13:28:03;;;;;;;;;1.50;1.50;;;;;29.31;20.04;101230.50;5078585;28;45328;-59
2023/10/16 13:30:31;;;;;;;;;2.25;1.00;;;;;29.76;18.83;101228.03;5078169;28;45474;-59
2023/10/16 13:33:00;;;;;;;;;0.75;0.75;;;;;30.17;18.94;101232.22;5078972;28;45408;-59
2023/10/16 13:35:26;;;;;;;;;1.50;1.50;;;;;30.31;18.63;101236.06;5079018;28;45253;-59
2023/10/16 13:37:51;;;;;;;;;0.75;0.75;;;;;30.39;18.25;101234.06;5060331;28;46017;-59
2023/10/16 13:40:21;;;;;;;;;2.75;2.00;;;;;30.56;18.48;101242.25;5078928;28;45332;-60
2023/10/16 13:42:50;;;;;;;;;2.00;2.00;;;;;30.68;18.63;101232.44;5078418;28;45355;-58
2023/10/16 13:45:17;;;;;;;;;1.00;1.00;;;;;30.86;18.45;101238.47;5078857;28;45478;-59
2023/10/16 13:47:44;;;;;;;;;0.75;0.75;;;;;30.99;17.70;101232.25;5074709;27;45307;-59
2023/10/16 13:50:12;;;;;;;;;1.50;0.25;;;;;30.81;17.69;101230.72;5078110;28;45525;-59
2023/10/16 13:52:38;;;;;;;;;0.25;0.25;;;;;30.77;18.01;101223.88;5078395;28;45414;-60
2023/10/16 13:55:12;;;;;;;;;0.50;0.50;;;;;30.74;17.76;101227.00;5078675;28;45502;-61
2023/10/16 13:57:47;;;;;;;;;3.50;1.00;;;;;30.79;17.82;101223.69;5077159;28;45378;-59
2023/10/16 14:00:28;;;;;;;;;1.00;1.00;;;;;31.06;17.85;101220.22;5078649;28;45412;-59
2023/10/16 14:02:57;;;;;;;;;0.00;0.00;;;;;31.33;17.63;101199.28;5078692;28;45322;-60
2023/10/16 14:05:23;;;;;;;;;1.75;1.75;;;;;31.59;17.74;101210.69;5081894;28;45445;-59
2023/10/16 14:07:48;;;;;;;;;1.00;1.00;;;;;31.74;17.20;101194.03;5081127;28;45378;-60
2023/10/16 14:10:14;;;;;;;;;3.00;1.00;;;;;32.01;16.85;101202.59;5081748;28;50711;-59
2023/10/16 14:12:41;;;;;;;;;1.75;1.75;;;;;32.11;16.47;101198.44;5081979;28;45332;-60
2023/10/16 14:15:15;;;;;;;;;1.00;1.00;;;;;32.35;16.65;101199.94;5081884;28;46118;-60
2023/10/16 14:17:44;;;;;;;;;1.75;0.75;;;;;32.33;16.32;101184.59;5081008;28;46225;-59
2023/10/16 14:20:29;;;;;;;;;0.75;0.75;;;;;32.37;15.94;101195.06;5081812;28;45391;-59
2023/10/16 14:22:55;;;;;;;;;1.00;1.00;;;;;32.36;16.36;101167.50;5081801;28;45406;-59
2023/10/16 14:25:25;;;;;;;;;2.50;2.00;;;;;32.56;16.57;101174.91;5063302;28;49788;-59
2023/10/16 14:27:55;;;;;;;;;1.00;1.00;;;;;32.78;16.84;101174.84;5081348;28;45269;-59
2023/10/16 14:30:25;;;;;;;;;0.75;0.75;;;;;32.80;16.99;101167.19;5081891;28;45482;-59
2023/10/16 14:32:51;;;;;;;;;1.75;1.75;;;;;32.88;16.96;101176.19;5081998;28;45337;-60
2023/10/16 14:35:16;;;;;;;;;2.50;2.50;;;;;33.01;16.62;101176.25;5081510;28;54428;-58
2023/10/16 14:37:43;;;;;;;;;2.50;2.50;;;;;33.08;16.83;101167.97;5081570;28;46920;-60
2023/10/16 14:40:09;;;;;;;;;2.25;2.25;;;;;33.12;16.93;101174.81;5081914;28;45228;-59
2023/10/16 14:42:34;;;;;;;;;3.00;3.00;;;;;33.14;16.98;101169.06;5063121;28;45406;-59
2023/10/16 14:45:01;;;;;;;;;1.25;1.25;;;;;33.06;17.12;101158.97;5081557;28;45389;-59
2023/10/16 14:47:27;;;;;;;;;1.00;1.00;;;;;32.90;16.22;101149.09;5081490;28;46550;-59
2023/10/16 14:49:54;;;;;;;;;1.50;0.75;;;;;32.70;16.27;101156.44;5081462;28;45470;-59
2023/10/16 14:52:20;;;;;;;;;2.00;0.00;;;;;32.47;15.78;101144.75;5080653;28;45475;-59
2023/10/16 14:54:45;;;;;;;;;1.25;1.25;;;;;32.31;16.52;101149.56;5081233;28;45307;-58
2023/10/16 14:57:10;;;;;;;;;2.00;0.25;;;;;32.14;17.10;101144.47;5080125;28;58895;-59
2023/10/16 14:59:37;;;;;;;;;2.50;2.00;;;;;32.20;17.59;101149.25;5081271;28;45213;-59
2023/10/16 15:02:02;;;;;;;;;1.00;1.00;;;;;32.08;16.75;101157.22;5081412;28;45524;-60
2023/10/16 15:04:28;;;;;;;;;1.25;0.75;;;;;31.88;16.17;101153.44;5081330;28;45284;-59
2023/10/16 15:07:01;;;;;;;;;0.50;0.50;;;;;31.63;17.12;101152.13;5080903;28;46101;-60
2023/10/16 15:09:26;;;;;;;;;0.75;0.75;;;;;31.50;17.24;101141.72;5079149;27;45438;-58
2023/10/16 15:11:52;;;;;;;;;1.75;1.75;;;;;31.27;17.01;101146.56;5080767;28;49614;-59
2023/10/16 15:14:17;;;;;;;;;1.00;1.00;;;;;31.29;17.19;101153.66;5079597;28;45282;-60
2023/10/16 15:16:43;;;;;;;;;0.75;0.75;;;;;31.19;17.15;101155.88;5080990;28;50248;-59
2023/10/16 15:19:08;;;;;;;;;0.75;0.75;;;;;31.14;16.68;101145.34;5080947;28;45190;-59
2023/10/16 15:21:39;;;;;;;;;0.75;0.00;;;;;30.80;17.59;101147.84;5081351;28;45268;-60
2023/10/16 15:24:05;;;;;;;;;1.50;1.50;;;;;30.64;17.79;101146.16;5079762;28;45536;-60
2023/10/16 15:26:32;;;;;;;;;0.00;0.00;;;;;30.51;17.01;101129.38;5080845;28;46140;-59
2023/10/16 15:28:57;;;;;;;;;1.00;1.00;;;;;30.33;17.69;101124.19;5080443;28;45273;-58
2023/10/16 15:31:22;;;;;;;;;3.00;0.75;;;;;30.14;17.66;101127.47;5079530;28;45839;-59
2023/10/16 15:33:49;;;;;;;;;1.50;0.50;;;;;30.08;17.93;101128.25;5080695;28;45474;-59
2023/10/16 15:36:17;;;;;;;;;2.00;0.50;;;;;29.89;17.69;101115.78;5079405;28;45422;-60
2023/10/16 15:38:43;;;;;;;;;1.00;1.00;;;;;29.63;17.52;101102.34;5079480;28;45371;-59
2023/10/16 15:41:11;;;;;;;;;0.75;0.75;;;;;29.49;18.15;101124.41;5080513;28;45426;-59
2023/10/16 15:43:37;;;;;;;;;1.75;0.50;;;;;29.23;17.81;101116.44;5079072;28;45446;-60
2023/10/16 15:46:03;;;;;;;;;2.75;1.00;;;;;28.94;18.79;101131.78;5080165;28;46174;-60
2023/10/16 15:48:29;;;;;;;;;1.00;1.00;;;;;28.72;18.57;101134.44;5079854;28;45373;-61
2023/10/16 15:50:55;;;;;;;;;2.25;0.50;;;;;28.52;18.97;101120.19;5080509;28;45731;-60
2023/10/16 15:53:22;;;;;;;;;0.00;0.00;;;;;28.41;19.27;101128.88;5071658;28;45383;-60
2023/10/16 15:55:47;;;;;;;;;0.75;0.75;;;;;28.33;19.59;101134.41;5079373;28;45482;-60
2023/10/16 15:58:12;;;;;;;;;1.00;1.00;;;;;28.07;19.48;101129.09;5080150;28;45371;-60
2023/10/16 16:00:38;;;;;;;;;1.00;1.00;;;;;27.71;19.47;101126.69;5078777;28;46549;-59
2023/10/16 16:03:11;;;;;;;;;1.75;1.75;;;;;27.47;19.94;101121.16;5078932;28;45583;-62
2023/10/16 16:05:37;;;;;;;;;2.50;2.50;;;;;27.16;19.74;101128.31;5080073;28;46194;-60
2023/10/16 16:08:05;;;;;;;;;3.00;2.00;;;;;26.94;20.19;101127.91;5080180;28;45332;-59
2023/10/16 16:10:34;;;;;;;;;1.50;1.00;;;;;26.80;20.50;101134.00;5080317;28;45265;-60
2023/10/16 16:13:03;;;;;;;;;1.50;0.50;;;;;26.56;20.43;101140.25;5079684;28;45511;-60
2023/10/16 16:15:28;;;;;;;;;1.25;0.75;;;;;26.33;20.67;101145.47;5079985;28;46214;-60
2023/10/16 16:17:54;;;;;;;;;1.50;1.50;;;;;26.13;21.21;101143.91;5080113;28;45401;-60
2023/10/16 16:20:21;;;;;;;;;2.00;2.00;;;;;25.90;21.38;101131.72;5079069;28;45378;-60
2023/10/16 16:22:48;;;;;;;;;1.00;1.00;;;;;25.77;21.14;101126.66;5079872;28;45376;-60
2023/10/16 16:25:15;;;;;;;;;1.75;1.75;;;;;25.57;21.62;101125.06;5079892;28;46189;-61
2023/10/16 16:27:41;;;;;;;;;1.00;1.00;;;;;25.39;21.51;101122.34;5078032;28;45244;-61
2023/10/16 16:30:10;;;;;;;;;2.00;2.00;;;;;25.23;21.79;101122.16;5079502;28;45328;-59
2023/10/16 16:32:36;;;;;;;;;1.50;1.50;;;;;25.03;22.49;101117.81;5078321;28;45482;-61
2023/10/16 16:35:03;;;;;;;;;1.25;1.25;;;;;24.98;22.58;101131.16;5079109;28;46155;-61
2023/10/16 16:37:29;;;;;;;;;1.50;1.50;;;;;24.76;23.03;101121.41;5079039;28;45482;-59
2023/10/16 16:39:54;;;;;;;;;2.75;2.00;;;;;24.64;23.19;101125.41;5079227;28;45499;-59
2023/10/16 16:42:20;;;;;;;;;3.00;3.00;;;;;24.54;23.43;101136.41;5077517;28;52181;-60
2023/10/16 16:44:45;;;;;;;;;1.75;1.75;;;;;24.39;23.77;101127.81;5078974;28;46218;-60
2023/10/16 16:47:11;;;;;;;;;2.00;2.00;;;;;24.24;24.37;101136.66;5059788;28;52408;-60
2023/10/16 16:49:36;;;;;;;;;1.50;1.50;;;;;24.09;24.35;101137.09;5078559;28;45382;-61
2023/10/16 16:52:01;;;;;;;;;2.75;2.00;;;;;23.95;24.50;101134.81;5078337;28;45363;-59
2023/10/16 16:54:28;;;;;;;;;3.00;3.00;;;;;23.92;24.77;101139.72;5079107;28;45463;-62
2023/10/16 16:56:54;;;;;;;;;5.25;3.50;;;;;23.82;24.61;101150.69;5078948;28;45433;-60
2023/10/16 16:59:20;;;;;;;;;2.25;2.25;;;;;23.75;24.97;101146.81;5079204;28;45334;-60
2023/10/16 17:01:47;;;;;;;;;2.25;2.25;;;;;23.45;25.24;101104.00;5060128;28;46205;-60
2023/10/16 17:04:13;;;;;;;;;3.00;3.00;;;;;23.58;25.16;101137.44;5078380;28;46245;-60
2023/10/16 17:06:40;;;;;;;;;2.00;2.00;;;;;23.50;25.57;101151.00;5078279;28;45288;-60
2023/10/16 17:09:07;;;;;;;;;3.00;3.00;;;;;23.29;25.53;101147.50;5072620;28;45482;-60
2023/10/16 17:11:32;;;;;;;;;3.75;3.50;;;;;23.22;25.49;101149.09;5076388;28;45550;-60
2023/10/16 17:13:58;;;;;;;;;3.00;3.00;;;;;23.22;25.71;101144.44;5060231;28;46954;-60
2023/10/16 17:16:25;;;;;;;;;3.50;2.00;;;;;23.12;25.98;101145.47;5078609;28;45320;-59
2023/10/16 17:18:50;;;;;;;;;3.00;3.00;;;;;23.08;25.80;101144.00;5077953;28;45493;-61
2023/10/16 17:21:19;;;;;;;;;4.00;4.00;;;;;23.02;25.82;101135.38;5078369;28;46571;-60
2023/10/16 17:23:44;;;;;;;;;5.00;4.00;;;;;23.00;25.77;101141.97;5078798;28;45541;-60
2023/10/16 17:26:10;;;;;;;;;5.00;4.00;;;;;22.92;26.18;101153.63;5078803;28;45509;-60
2023/10/16 17:28:36;;;;;;;;;2.00;2.00;;;;;22.89;25.98;101155.75;5078710;28;45355;-59
2023/10/16 17:31:01;;;;;;;;;3.25;3.00;;;;;22.86;26.18;101165.13;5078660;28;45304;-60
2023/10/16 17:33:27;;;;;;;;;7.50;6.00;;;;;22.77;26.07;101154.16;5078741;28;45334;-60
2023/10/16 17:36:00;;;;;;;;;5.00;4.00;;;;;22.73;26.08;101169.91;5078569;28;45414;-59
2023/10/16 17:38:26;;;;;;;;;8.00;7.50;;;;;22.70;25.92;101169.34;5078036;28;45419;-59
2023/10/16 17:40:51;;;;;;;;;6.50;5.75;;;;;22.62;26.02;101161.84;5078212;28;45390;-60
2023/10/16 17:43:19;;;;;;;;;5.00;3.75;;;;;22.57;26.33;101159.50;5077555;28;45402;-59
2023/10/16 17:45:45;;;;;;;;;5.50;3.00;;;;;22.46;26.02;101164.19;5078178;28;45525;-60
2023/10/16 17:48:11;;;;;;;;;5.75;5.75;;;;;22.44;26.24;101158.00;5078619;28;45267;-60
2023/10/16 17:50:36;;;;;;;;;4.00;4.00;;;;;22.44;26.17;101160.75;5077683;28;45418;-61
2023/10/16 17:53:02;;;;;;;;;6.00;5.00;;;;;22.43;26.29;101150.81;5077555;28;45424;-59
2023/10/16 17:55:27;;;;;;;;;9.75;7.25;;;;;22.43;26.06;101154.41;5059430;28;45464;-59
2023/10/16 17:57:52;;;;;;;;;4.00;4.00;;;;;22.35;26.50;101136.97;5078250;28;45366;-60
2023/10/16 18:00:23;;;;;;;;;8.75;7.75;;;;;22.34;26.73;101148.91;5068998;27;54499;-60
2023/10/16 18:02:49;;;;;;;;;8.75;7.00;;;;;22.25;26.79;101145.13;5077589;28;45352;-60
2023/10/16 18:05:16;;;;;;;;;6.00;5.75;;;;;22.21;26.71;101146.38;5076640;28;52290;-60